Eldred, Illinois
Current Conditions -  °F | °C
As of 3:54 AM on Saturday 20 Dec 2014 (Local Time) from KSET Reporting Station
Haze Haze  
Wind Chill: 29°   Ceiling: 5500
Heat Index: 34°   Visibility: 6mi
Dew Point: 30°   Wind: 6mph
Humidity: 85%   Direction: 100°E
Pressure: 30.26"   Gusts: NA
Location:  39.29°N, 90.55°W
Report Text: KSET 200954Z AUTO 10005KT 6SM BR OVC055 01/M01 A3026 RMK AO2 SLP248 T00111011
Loading
Personal Weather Stations






























Interactive Weather Map New forecast layout! Learn more

10-Day Weather Forecast

Advertisements
Track Severe Weather on mobile